sensor_id;sensor_type;location;lat;lon;timestamp;pressure;altitude;pressure_sealevel;temperature;humidity
48792;BME280;34587;48.816;9.420;2023-03-31T04:16:10;97739.53;;;10.50;74.10
48792;BME280;34587;48.816;9.420;2023-03-31T04:18:36;97723.06;;;10.51;72.96
48792;BME280;34587;48.816;9.420;2023-03-31T04:21:06;97721.41;;;10.50;72.92
48792;BME280;34587;48.816;9.420;2023-03-31T04:23:37;97713.84;;;10.44;73.08
48792;BME280;34587;48.816;9.420;2023-03-31T04:26:07;97704.97;;;10.25;74.09
48792;BME280;34587;48.816;9.420;2023-03-31T04:28:34;97700.56;;;10.28;73.53
48792;BME280;34587;48.816;9.420;2023-03-31T04:31:00;97678.28;;;10.23;74.47
48792;BME280;34587;48.816;9.420;2023-03-31T04:33:27;97680.66;;;10.31;73.83
48792;BME280;34587;48.816;9.420;2023-03-31T04:35:52;97671.66;;;10.16;74.73
48792;BME280;34587;48.816;9.420;2023-03-31T04:38:20;97661.56;;;10.33;73.94
48792;BME280;34587;48.816;9.420;2023-03-31T04:40:50;97674.44;;;10.35;74.06
48792;BME280;34587;48.816;9.420;2023-03-31T04:43:17;97672.63;;;10.12;75.65
48792;BME280;34587;48.816;9.420;2023-03-31T04:45:43;97670.63;;;10.20;75.16
48792;BME280;34587;48.816;9.420;2023-03-31T04:48:08;97674.56;;;10.57;73.02
48792;BME280;34587;48.816;9.420;2023-03-31T04:50:34;97683.00;;;10.62;72.93
48792;BME280;34587;48.816;9.420;2023-03-31T04:53:00;97666.00;;;10.54;73.29
48792;BME280;34587;48.816;9.420;2023-03-31T04:55:25;97665.84;;;10.34;74.53
48792;BME280;34587;48.816;9.420;2023-03-31T04:57:51;97656.28;;;10.36;74.93
48792;BME280;34587;48.816;9.420;2023-03-31T05:00:17;97643.06;;;10.44;75.03
48792;BME280;34587;48.816;9.420;2023-03-31T05:02:43;97646.78;;;10.37;75.64
48792;BME280;34587;48.816;9.420;2023-03-31T05:05:08;97638.84;;;10.16;76.39
48792;BME280;34587;48.816;9.420;2023-03-31T05:07:35;97637.56;;;10.03;76.60
48792;BME280;34587;48.816;9.420;2023-03-31T05:10:00;97639.56;;;9.95;78.03
48792;BME280;34587;48.816;9.420;2023-03-31T05:12:25;97633.97;;;9.82;78.03
48792;BME280;34587;48.816;9.420;2023-03-31T05:14:50;97634.59;;;10.14;77.22
48792;BME280;34587;48.816;9.420;2023-03-31T05:17:16;97630.78;;;9.99;77.31
48792;BME280;34587;48.816;9.420;2023-03-31T05:19:42;97630.16;;;9.92;78.95
48792;BME280;34587;48.816;9.420;2023-03-31T05:22:07;97635.88;;;9.77;79.93
48792;BME280;34587;48.816;9.420;2023-03-31T05:24:32;97639.44;;;9.73;80.64
48792;BME280;34587;48.816;9.420;2023-03-31T05:26:58;97644.56;;;9.74;80.46
48792;BME280;34587;48.816;9.420;2023-03-31T05:29:23;97650.56;;;9.75;81.64
48792;BME280;34587;48.816;9.420;2023-03-31T05:31:49;97668.38;;;9.84;81.72
48792;BME280;34587;48.816;9.420;2023-03-31T05:34:14;97676.03;;;9.61;83.90
48792;BME280;34587;48.816;9.420;2023-03-31T05:36:40;97683.91;;;9.58;86.16
48792;BME280;34587;48.816;9.420;2023-03-31T05:39:07;97708.78;;;9.34;88.73
48792;BME280;34587;48.816;9.420;2023-03-31T05:41:33;97715.72;;;9.32;89.01
48792;BME280;34587;48.816;9.420;2023-03-31T05:43:58;97708.47;;;9.15;91.21
48792;BME280;34587;48.816;9.420;2023-03-31T05:46:24;97698.31;;;9.38;90.29
48792;BME280;34587;48.816;9.420;2023-03-31T05:48:50;97695.41;;;9.47;87.66
48792;BME280;34587;48.816;9.420;2023-03-31T05:51:16;97686.88;;;9.45;87.46
48792;BME280;34587;48.816;9.420;2023-03-31T05:53:41;97691.53;;;9.34;89.96
48792;BME280;34587;48.816;9.420;2023-03-31T05:56:06;97682.72;;;9.12;92.15
48792;BME280;34587;48.816;9.420;2023-03-31T05:58:33;97678.44;;;9.11;94.50
48792;BME280;34587;48.816;9.420;2023-03-31T06:01:14;97650.59;;;9.48;88.89
48792;BME280;34587;48.816;9.420;2023-03-31T06:03:44;97645.91;;;9.33;90.24
48792;BME280;34587;48.816;9.420;2023-03-31T06:06:10;97646.19;;;9.24;92.41
48792;BME280;34587;48.816;9.420;2023-03-31T06:08:39;97631.75;;;9.17;93.79
48792;BME280;34587;48.816;9.420;2023-03-31T06:11:10;97621.91;;;9.28;94.24
48792;BME280;34587;48.816;9.420;2023-03-31T06:13:37;97622.91;;;9.24;96.03
48792;BME280;34587;48.816;9.420;2023-03-31T06:16:03;97617.59;;;9.29;97.02
48792;BME280;34587;48.816;9.420;2023-03-31T06:18:30;97602.00;;;9.04;97.10
48792;BME280;34587;48.816;9.420;2023-03-31T06:20:56;97597.31;;;9.16;97.44
48792;BME280;34587;48.816;9.420;2023-03-31T06:23:21;97597.25;;;9.18;97.19
48792;BME280;34587;48.816;9.420;2023-03-31T06:25:47;97601.13;;;9.31;96.14
48792;BME280;34587;48.816;9.420;2023-03-31T06:28:12;97604.91;;;9.21;95.84
48792;BME280;34587;48.816;9.420;2023-03-31T06:30:38;97588.91;;;9.36;94.97
48792;BME280;34587;48.816;9.420;2023-03-31T06:33:03;97583.44;;;9.45;94.75
48792;BME280;34587;48.816;9.420;2023-03-31T06:35:29;97569.75;;;9.43;95.36
48792;BME280;34587;48.816;9.420;2023-03-31T06:37:54;97565.00;;;9.30;96.33
48792;BME280;34587;48.816;9.420;2023-03-31T06:40:19;97570.06;;;9.33;96.77
48792;BME280;34587;48.816;9.420;2023-03-31T06:42:45;97580.53;;;9.28;96.97
48792;BME280;34587;48.816;9.420;2023-03-31T06:45:10;97584.34;;;9.44;96.80
48792;BME280;34587;48.816;9.420;2023-03-31T06:47:35;97586.31;;;9.36;97.70
48792;BME280;34587;48.816;9.420;2023-03-31T06:50:03;97581.31;;;9.32;98.92
48792;BME280;34587;48.816;9.420;2023-03-31T06:52:30;97601.63;;;9.16;99.40
48792;BME280;34587;48.816;9.420;2023-03-31T06:54:56;97602.94;;;9.01;100.00
48792;BME280;34587;48.816;9.420;2023-03-31T06:57:21;97605.75;;;8.93;100.00
48792;BME280;34587;48.816;9.420;2023-03-31T06:59:46;97617.88;;;8.91;100.00
48792;BME280;34587;48.816;9.420;2023-03-31T07:02:11;97618.72;;;9.20;100.00
48792;BME280;34587;48.816;9.420;2023-03-31T07:04:37;97629.78;;;9.25;100.00
48792;BME280;34587;48.816;9.420;2023-03-31T07:07:02;97633.91;;;9.02;100.00
48792;BME280;34587;48.816;9.420;2023-03-31T07:09:27;97647.19;;;9.18;100.00
48792;BME280;34587;48.816;9.420;2023-03-31T07:11:53;97642.63;;;9.26;100.00
48792;BME280;34587;48.816;9.420;2023-03-31T07:14:18;97656.81;;;9.41;100.00
48792;BME280;34587;48.816;9.420;2023-03-31T07:16:43;97676.53;;;9.45;100.00
48792;BME280;34587;48.816;9.420;2023-03-31T07:19:09;97678.03;;;9.52;99.28
48792;BME280;34587;48.816;9.420;2023-03-31T07:21:35;97664.00;;;9.60;97.12
48792;BME280;34587;48.816;9.420;2023-03-31T07:24:01;97655.34;;;9.61;96.37
48792;BME280;34587;48.816;9.420;2023-03-31T07:26:26;97597.06;;;9.50;97.66
48792;BME280;34587;48.816;9.420;2023-03-31T07:28:52;97596.84;;;9.57;96.89
48792;BME280;34587;48.816;9.420;2023-03-31T07:31:20;97553.59;;;9.62;93.58
48792;BME280;34587;48.816;9.420;2023-03-31T07:33:46;97553.19;;;9.74;89.24
48792;BME280;34587;48.816;9.420;2023-03-31T07:36:11;97506.41;;;9.80;88.20
48792;BME280;34587;48.816;9.420;2023-03-31T07:38:37;97513.94;;;9.86;88.70
48792;BME280;34587;48.816;9.420;2023-03-31T07:41:02;97566.28;;;9.69;90.38
48792;BME280;34587;48.816;9.420;2023-03-31T07:43:27;97578.75;;;9.83;88.99
48792;BME280;34587;48.816;9.420;2023-03-31T07:45:53;97573.88;;;9.74;91.03
48792;BME280;34587;48.816;9.420;2023-03-31T07:48:18;97577.50;;;9.93;87.94
48792;BME280;34587;48.816;9.420;2023-03-31T07:50:43;97584.22;;;10.24;86.73
48792;BME280;34587;48.816;9.420;2023-03-31T07:53:09;97568.94;;;11.09;84.34
48792;BME280;34587;48.816;9.420;2023-03-31T07:55:34;97552.03;;;12.24;76.93
48792;BME280;34587;48.816;9.420;2023-03-31T07:57:59;97557.22;;;11.42;78.41
48792;BME280;34587;48.816;9.420;2023-03-31T08:00:25;97555.09;;;12.13;76.59
48792;BME280;34587;48.816;9.420;2023-03-31T08:02:51;97547.06;;;12.38;75.14
48792;BME280;34587;48.816;9.420;2023-03-31T08:05:18;97545.72;;;11.90;75.47
48792;BME280;34587;48.816;9.420;2023-03-31T08:07:45;97544.44;;;11.78;75.57
48792;BME280;34587;48.816;9.420;2023-03-31T08:10:15;97546.75;;;11.66;77.44
48792;BME280;34587;48.816;9.420;2023-03-31T08:12:40;97549.22;;;12.09;73.10
48792;BME280;34587;48.816;9.420;2023-03-31T08:15:06;97548.66;;;12.22;72.06
48792;BME280;34587;48.816;9.420;2023-03-31T08:17:31;97546.88;;;11.83;73.45
48792;BME280;34587;48.816;9.420;2023-03-31T08:19:57;97540.50;;;11.70;74.04
48792;BME280;34587;48.816;9.420;2023-03-31T08:22:22;97535.63;;;12.61;71.71
48792;BME280;34587;48.816;9.420;2023-03-31T08:24:47;97512.75;;;15.50;62.33
48792;BME280;34587;48.816;9.420;2023-03-31T08:27:13;97511.28;;;17.43;55.07
48792;BME280;34587;48.816;9.420;2023-03-31T08:29:38;97520.41;;;17.90;52.26
48792;BME280;34587;48.816;9.420;2023-03-31T08:32:03;97512.31;;;19.76;48.67
48792;BME280;34587;48.816;9.420;2023-03-31T08:34:29;97515.31;;;19.24;48.55
48792;BME280;34587;48.816;9.420;2023-03-31T08:36:55;97502.94;;;20.41;45.10
48792;BME280;34587;48.816;9.420;2023-03-31T08:39:20;97502.44;;;20.25;46.58
48792;BME280;34587;48.816;9.420;2023-03-31T08:41:52;97498.88;;;20.26;46.37
48792;BME280;34587;48.816;9.420;2023-03-31T08:44:29;97508.59;;;18.59;47.04
48792;BME280;34587;48.816;9.420;2023-03-31T08:46:58;97507.84;;;20.12;45.63
48792;BME280;34587;48.816;9.420;2023-03-31T08:49:25;97500.41;;;20.40;45.87
48792;BME280;34587;48.816;9.420;2023-03-31T08:52:01;97500.34;;;19.72;45.82
48792;BME280;34587;48.816;9.420;2023-03-31T08:56:56;97500.19;;;22.45;41.57
48792;BME280;34587;48.816;9.420;2023-03-31T08:59:26;97499.34;;;22.14;42.38
48792;BME280;34587;48.816;9.420;2023-03-31T09:15:39;97489.44;;;19.31;47.06
48792;BME280;34587;48.816;9.420;2023-03-31T09:18:16;97463.94;;;20.01;45.81
48792;BME280;34587;48.816;9.420;2023-03-31T09:20:47;97471.06;;;21.21;43.70
48792;BME280;34587;48.816;9.420;2023-03-31T09:26:00;97454.88;;;21.37;43.87
48792;BME280;34587;48.816;9.420;2023-03-31T09:28:35;97442.03;;;20.79;43.04
48792;BME280;34587;48.816;9.420;2023-03-31T09:31:13;97436.53;;;21.36;42.49
48792;BME280;34587;48.816;9.420;2023-03-31T09:33:43;97428.63;;;22.08;41.20
48792;BME280;34587;48.816;9.420;2023-03-31T09:36:14;97427.88;;;21.45;41.15
48792;BME280;34587;48.816;9.420;2023-03-31T09:38:42;97442.19;;;19.88;43.19
48792;BME280;34587;48.816;9.420;2023-03-31T09:41:08;97430.59;;;19.68;43.53
48792;BME280;34587;48.816;9.420;2023-03-31T09:43:35;97450.19;;;17.95;47.70
48792;BME280;34587;48.816;9.420;2023-03-31T09:46:01;97443.91;;;16.65;49.88
48792;BME280;34587;48.816;9.420;2023-03-31T09:48:29;97448.69;;;15.75;52.13
48792;BME280;34587;48.816;9.420;2023-03-31T09:51:01;97436.84;;;15.39;54.46
48792;BME280;34587;48.816;9.420;2023-03-31T09:53:36;97456.03;;;14.78;54.32
48792;BME280;34587;48.816;9.420;2023-03-31T09:56:04;97460.31;;;14.47;55.37
48792;BME280;34587;48.816;9.420;2023-03-31T09:58:33;97458.38;;;14.19;55.77
48792;BME280;34587;48.816;9.420;2023-03-31T10:01:05;97476.06;;;13.63;62.92
48792;BME280;34587;48.816;9.420;2023-03-31T10:03:46;97471.00;;;13.60;62.76
48792;BME280;34587;48.816;9.420;2023-03-31T10:06:13;97451.16;;;15.17;57.70
48792;BME280;34587;48.816;9.420;2023-03-31T10:09:00;97434.28;;;15.53;54.71
48792;BME280;34587;48.816;9.420;2023-03-31T10:11:26;97433.66;;;16.07;51.37
48792;BME280;34587;48.816;9.420;2023-03-31T10:14:02;97425.19;;;17.64;48.88
48792;BME280;34587;48.816;9.420;2023-03-31T10:16:42;97425.59;;;17.45;49.05
48792;BME280;34587;48.816;9.420;2023-03-31T10:19:22;97404.97;;;20.92;41.04
48792;BME280;34587;48.816;9.420;2023-03-31T10:22:37;97409.56;;;19.80;41.20
48792;BME280;34587;48.816;9.420;2023-03-31T10:25:29;97400.91;;;19.55;43.82
48792;BME280;34587;48.816;9.420;2023-03-31T10:27:57;97400.00;;;20.12;40.52
48792;BME280;34587;48.816;9.420;2023-03-31T10:30:25;97390.72;;;20.95;38.41
48792;BME280;34587;48.816;9.420;2023-03-31T10:32:53;97383.44;;;21.92;37.16
48792;BME280;34587;48.816;9.420;2023-03-31T10:35:30;97391.38;;;19.54;41.73
48792;BME280;34587;48.816;9.420;2023-03-31T10:38:01;97411.69;;;17.32;44.30
48792;BME280;34587;48.816;9.420;2023-03-31T10:40:29;97396.19;;;16.35;47.55
48792;BME280;34587;48.816;9.420;2023-03-31T10:43:15;97390.63;;;15.55;48.38
48792;BME280;34587;48.816;9.420;2023-03-31T10:45:49;97375.81;;;15.99;48.42
48792;BME280;34587;48.816;9.420;2023-03-31T10:48:28;97387.81;;;16.84;47.50
48792;BME280;34587;48.816;9.420;2023-03-31T10:50:59;97347.56;;;19.08;41.29
48792;BME280;34587;48.816;9.420;2023-03-31T10:53:25;97371.94;;;17.00;44.00
48792;BME280;34587;48.816;9.420;2023-03-31T11:03:59;97359.28;;;16.12;46.73
48792;BME280;34587;48.816;9.420;2023-03-31T11:09:32;97352.59;;;15.80;46.47
48792;BME280;34587;48.816;9.420;2023-03-31T11:12:26;97335.78;;;15.98;45.71
48792;BME280;34587;48.816;9.420;2023-03-31T11:17:52;97326.03;;;15.45;45.88
48792;BME280;34587;48.816;9.420;2023-03-31T11:20:54;97320.97;;;15.41;46.17
48792;BME280;34587;48.816;9.420;2023-03-31T11:23:40;97319.53;;;14.93;46.32
48792;BME280;34587;48.816;9.420;2023-03-31T11:29:09;97320.69;;;14.43;46.96
48792;BME280;34587;48.816;9.420;2023-03-31T11:31:54;97372.38;;;13.87;50.57
48792;BME280;34587;48.816;9.420;2023-03-31T11:37:33;97558.88;;;9.06;86.07
48792;BME280;34587;48.816;9.420;2023-03-31T11:42:33;97540.94;;;8.73;90.34
48792;BME280;34587;48.816;9.420;2023-03-31T11:45:04;97527.34;;;8.94;87.34
48792;BME280;34587;48.816;9.420;2023-03-31T11:47:38;97515.59;;;8.86;83.73
48792;BME280;34587;48.816;9.420;2023-03-31T11:50:10;97503.22;;;9.22;79.42
48792;BME280;34587;48.816;9.420;2023-03-31T11:52:40;97517.59;;;9.31;80.04
48792;BME280;34587;48.816;9.420;2023-03-31T11:55:14;97527.69;;;9.63;79.23
48792;BME280;34587;48.816;9.420;2023-03-31T11:57:45;97522.06;;;9.77;77.85
48792;BME280;34587;48.816;9.420;2023-03-31T12:05:16;97509.88;;;9.79;73.00
48792;BME280;34587;48.816;9.420;2023-03-31T12:07:51;97517.34;;;10.12;73.14
48792;BME280;34587;48.816;9.420;2023-03-31T12:10:22;97512.13;;;10.37;71.43
48792;BME280;34587;48.816;9.420;2023-03-31T12:12:58;97508.78;;;11.00;71.69
48792;BME280;34587;48.816;9.420;2023-03-31T12:15:31;97502.63;;;11.66;67.89
48792;BME280;34587;48.816;9.420;2023-03-31T12:18:07;97496.91;;;11.98;64.99
48792;BME280;34587;48.816;9.420;2023-03-31T12:20:37;97493.94;;;13.18;63.37
48792;BME280;34587;48.816;9.420;2023-03-31T12:23:08;97501.63;;;13.38;63.99
48792;BME280;34587;48.816;9.420;2023-03-31T12:28:31;97463.81;;;13.31;63.14
48792;BME280;34587;48.816;9.420;2023-03-31T12:30:59;97442.22;;;12.58;63.42
48792;BME280;34587;48.816;9.420;2023-03-31T12:33:31;97466.56;;;13.10;63.43
48792;BME280;34587;48.816;9.420;2023-03-31T12:41:17;97450.75;;;13.83;60.05
48792;BME280;34587;48.816;9.420;2023-03-31T12:52:06;97398.28;;;13.57;57.24
48792;BME280;34587;48.816;9.420;2023-03-31T12:57:24;97381.06;;;14.51;58.04
48792;BME280;34587;48.816;9.420;2023-03-31T13:00:20;97372.31;;;14.21;57.13
48792;BME280;34587;48.816;9.420;2023-03-31T13:02:47;97369.59;;;13.75;56.58
48792;BME280;34587;48.816;9.420;2023-03-31T13:08:04;97358.53;;;14.19;55.11
48792;BME280;34587;48.816;9.420;2023-03-31T13:10:31;97360.97;;;14.37;55.60
48792;BME280;34587;48.816;9.420;2023-03-31T13:13:02;97350.63;;;14.20;55.94
48792;BME280;34587;48.816;9.420;2023-03-31T13:15:29;97351.88;;;14.60;54.25
48792;BME280;34587;48.816;9.420;2023-03-31T13:18:00;97356.22;;;14.44;53.62
48792;BME280;34587;48.816;9.420;2023-03-31T13:23:18;97339.53;;;13.85;54.54
48792;BME280;34587;48.816;9.420;2023-03-31T13:28:15;97350.41;;;13.44;56.23
48792;BME280;34587;48.816;9.420;2023-03-31T13:33:09;97356.56;;;12.91;57.88
48792;BME280;34587;48.816;9.420;2023-03-31T13:35:36;97366.53;;;12.47;57.35
48792;BME280;34587;48.816;9.420;2023-03-31T13:38:13;97383.59;;;12.16;59.53
48792;BME280;34587;48.816;9.420;2023-03-31T13:44:06;97389.28;;;12.05;61.07
48792;BME280;34587;48.816;9.420;2023-03-31T13:49:43;97390.34;;;12.01;60.95
48792;BME280;34587;48.816;9.420;2023-03-31T13:52:12;97390.72;;;12.30;59.76
48792;BME280;34587;48.816;9.420;2023-03-31T14:05:36;97413.72;;;11.21;62.83
48792;BME280;34587;48.816;9.420;2023-03-31T14:08:10;97392.41;;;11.15;63.16
48792;BME280;34587;48.816;9.420;2023-03-31T14:10:37;97385.56;;;11.14;63.59
48792;BME280;34587;48.816;9.420;2023-03-31T14:13:13;97354.31;;;10.96;63.15
48792;BME280;34587;48.816;9.420;2023-03-31T14:15:49;97356.91;;;10.96;64.00
48792;BME280;34587;48.816;9.420;2023-03-31T14:18:31;97329.03;;;11.01;64.02
48792;BME280;34587;48.816;9.420;2023-03-31T14:32:06;97347.38;;;12.67;57.08
48792;BME280;34587;48.816;9.420;2023-03-31T14:37:14;97346.38;;;13.21;55.71
48792;BME280;34587;48.816;9.420;2023-03-31T14:39:48;97338.97;;;13.31;56.56
48792;BME280;34587;48.816;9.420;2023-03-31T14:42:19;97365.56;;;13.19;55.54
48792;BME280;34587;48.816;9.420;2023-03-31T14:44:46;97351.22;;;12.59;57.70
48792;BME280;34587;48.816;9.420;2023-03-31T14:47:23;97339.44;;;12.52;57.61
48792;BME280;34587;48.816;9.420;2023-03-31T14:50:19;97335.22;;;12.84;56.06
48792;BME280;34587;48.816;9.420;2023-03-31T14:52:49;97342.66;;;12.92;56.20
48792;BME280;34587;48.816;9.420;2023-03-31T14:55:17;97349.25;;;12.82;56.61
48792;BME280;34587;48.816;9.420;2023-03-31T14:57:46;97339.06;;;12.77;57.02
48792;BME280;34587;48.816;9.420;2023-03-31T15:00:19;97349.47;;;12.77;57.67
48792;BME280;34587;48.816;9.420;2023-03-31T15:02:48;97340.97;;;12.91;58.04
48792;BME280;34587;48.816;9.420;2023-03-31T15:05:35;97341.34;;;13.01;58.31
48792;BME280;34587;48.816;9.420;2023-03-31T15:08:04;97328.81;;;12.74;58.52
48792;BME280;34587;48.816;9.420;2023-03-31T15:10:42;97338.22;;;12.77;59.38
48792;BME280;34587;48.816;9.420;2023-03-31T15:13:15;97330.22;;;12.81;60.00
48792;BME280;34587;48.816;9.420;2023-03-31T15:15:41;97317.50;;;12.58;59.11
48792;BME280;34587;48.816;9.420;2023-03-31T15:18:11;97307.19;;;12.56;59.75
48792;BME280;34587;48.816;9.420;2023-03-31T15:20:39;97309.31;;;12.66;59.82
48792;BME280;34587;48.816;9.420;2023-03-31T15:23:23;97317.13;;;12.83;59.37
48792;BME280;34587;48.816;9.420;2023-03-31T15:26:01;97311.22;;;12.79;60.18
48792;BME280;34587;48.816;9.420;2023-03-31T15:28:35;97302.44;;;12.47;60.85
48792;BME280;34587;48.816;9.420;2023-03-31T15:31:03;97308.41;;;12.49;61.18
48792;BME280;34587;48.816;9.420;2023-03-31T15:33:32;97309.94;;;12.71;59.56
48792;BME280;34587;48.816;9.420;2023-03-31T15:35:58;97310.06;;;12.85;59.88
48792;BME280;34587;48.816;9.420;2023-03-31T15:38:26;97310.75;;;12.71;60.34
48792;BME280;34587;48.816;9.420;2023-03-31T15:40:54;97313.91;;;12.78;59.58
48792;BME280;34587;48.816;9.420;2023-03-31T15:49:02;97309.13;;;13.03;58.83
48792;BME280;34587;48.816;9.420;2023-03-31T15:51:31;97303.38;;;12.64;59.93
48792;BME280;34587;48.816;9.420;2023-03-31T15:53:58;97309.34;;;12.48;60.95
48792;BME280;34587;48.816;9.420;2023-03-31T15:56:36;97308.09;;;12.38;61.47
48792;BME280;34587;48.816;9.420;2023-03-31T15:59:05;97305.16;;;12.27;61.92
48792;BME280;34587;48.816;9.420;2023-03-31T16:01:49;97299.66;;;12.16;62.42
48792;BME280;34587;48.816;9.420;2023-03-31T16:04:15;97308.69;;;12.26;62.51
48792;BME280;34587;48.816;9.420;2023-03-31T16:09:24;97302.56;;;12.09;62.66
48792;BME280;34587;48.816;9.420;2023-03-31T16:11:54;97298.38;;;11.88;62.94
48792;BME280;34587;48.816;9.420;2023-03-31T16:14:28;97303.19;;;11.77;62.56
48792;BME280;34587;48.816;9.420;2023-03-31T16:17:21;97315.41;;;11.75;63.30
48792;BME280;34587;48.816;9.420;2023-03-31T16:19:48;97315.69;;;11.69;63.22
48792;BME280;34587;48.816;9.420;2023-03-31T16:22:19;97324.59;;;11.63;64.21
48792;BME280;34587;48.816;9.420;2023-03-31T16:24:45;97326.47;;;11.59;63.81
48792;BME280;34587;48.816;9.420;2023-03-31T16:27:11;97334.88;;;11.65;64.27
48792;BME280;34587;48.816;9.420;2023-03-31T16:29:36;97340.75;;;11.49;64.16
48792;BME280;34587;48.816;9.420;2023-03-31T16:32:11;97333.81;;;11.50;64.78
48792;BME280;34587;48.816;9.420;2023-03-31T16:34:57;97339.38;;;11.42;64.89
48792;BME280;34587;48.816;9.420;2023-03-31T16:37:24;97337.03;;;11.36;64.91
48792;BME280;34587;48.816;9.420;2023-03-31T16:39:49;97344.97;;;11.33;65.37
48792;BME280;34587;48.816;9.420;2023-03-31T16:42:15;97363.13;;;11.33;65.50
48792;BME280;34587;48.816;9.420;2023-03-31T16:44:40;97335.50;;;11.32;64.87
48792;BME280;34587;48.816;9.420;2023-03-31T16:47:06;97338.03;;;11.33;65.13
48792;BME280;34587;48.816;9.420;2023-03-31T16:49:31;97344.03;;;11.34;64.93
48792;BME280;34587;48.816;9.420;2023-03-31T16:51:57;97352.81;;;11.31;65.60
48792;BME280;34587;48.816;9.420;2023-03-31T16:54:22;97336.53;;;11.28;65.15
48792;BME280;34587;48.816;9.420;2023-03-31T16:56:47;97335.00;;;11.24;64.44
48792;BME280;34587;48.816;9.420;2023-03-31T16:59:13;97324.75;;;11.21;63.28
48792;BME280;34587;48.816;9.420;2023-03-31T17:01:38;97331.13;;;11.14;63.79
48792;BME280;34587;48.816;9.420;2023-03-31T17:04:04;97336.44;;;11.11;64.15
48792;BME280;34587;48.816;9.420;2023-03-31T17:06:29;97332.16;;;11.10;65.25
48792;BME280;34587;48.816;9.420;2023-03-31T17:08:54;97332.81;;;11.15;63.67
48792;BME280;34587;48.816;9.420;2023-03-31T17:11:20;97330.75;;;11.02;63.16
48792;BME280;34587;48.816;9.420;2023-03-31T17:13:46;97333.47;;;10.99;62.23
48792;BME280;34587;48.816;9.420;2023-03-31T17:16:13;97338.28;;;10.88;63.08
48792;BME280;34587;48.816;9.420;2023-03-31T17:18:38;97343.19;;;10.94;63.02
48792;BME280;34587;48.816;9.420;2023-03-31T17:21:09;97350.50;;;10.85;63.49
48792;BME280;34587;48.816;9.420;2023-03-31T17:23:36;97340.34;;;10.80;63.50
48792;BME280;34587;48.816;9.420;2023-03-31T17:26:02;97351.09;;;10.71;64.08
48792;BME280;34587;48.816;9.420;2023-03-31T17:28:28;97356.25;;;10.71;64.34
48792;BME280;34587;48.816;9.420;2023-03-31T17:30:55;97362.84;;;10.78;63.92
48792;BME280;34587;48.816;9.420;2023-03-31T17:33:21;97370.13;;;10.70;64.68
48792;BME280;34587;48.816;9.420;2023-03-31T17:35:47;97366.63;;;10.71;65.07
48792;BME280;34587;48.816;9.420;2023-03-31T17:38:13;97359.34;;;10.59;66.19
48792;BME280;34587;48.816;9.420;2023-03-31T17:40:38;97365.69;;;10.51;66.76
48792;BME280;34587;48.816;9.420;2023-03-31T17:43:04;97369.31;;;10.47;66.20
48792;BME280;34587;48.816;9.420;2023-03-31T17:47:51;97363.41;;;10.44;66.71
48792;BME280;34587;48.816;9.420;2023-03-31T17:50:16;97375.88;;;10.34;67.26
48792;BME280;34587;48.816;9.420;2023-03-31T17:52:42;97382.88;;;10.32;67.29
48792;BME280;34587;48.816;9.420;2023-03-31T17:55:08;97370.25;;;10.23;67.30
48792;BME280;34587;48.816;9.420;2023-03-31T17:57:33;97371.16;;;10.22;67.72
48792;BME280;34587;48.816;9.420;2023-03-31T18:00:01;97374.84;;;10.38;67.06
48792;BME280;34587;48.816;9.420;2023-03-31T18:02:26;97375.34;;;10.26;67.89
48792;BME280;34587;48.816;9.420;2023-03-31T18:04:52;97382.53;;;10.18;68.09
48792;BME280;34587;48.816;9.420;2023-03-31T18:07:17;97385.88;;;10.20;69.16
48792;BME280;34587;48.816;9.420;2023-03-31T18:09:43;97412.50;;;10.01;71.99
48792;BME280;34587;48.816;9.420;2023-03-31T18:12:09;97435.09;;;9.73;76.43
48792;BME280;34587;48.816;9.420;2023-03-31T18:14:34;97437.72;;;9.48;80.06
48792;BME280;34587;48.816;9.420;2023-03-31T18:17:00;97430.53;;;9.31;81.73
48792;BME280;34587;48.816;9.420;2023-03-31T18:19:26;97431.00;;;9.19;83.57
48792;BME280;34587;48.816;9.420;2023-03-31T18:21:51;97434.72;;;9.10;85.29
48792;BME280;34587;48.816;9.420;2023-03-31T18:24:16;97455.84;;;8.96;84.40
48792;BME280;34587;48.816;9.420;2023-03-31T18:26:43;97449.97;;;8.91;84.50
48792;BME280;34587;48.816;9.420;2023-03-31T18:29:08;97447.69;;;8.82;84.89
48792;BME280;34587;48.816;9.420;2023-03-31T18:31:33;97434.38;;;8.68;87.73
48792;BME280;34587;48.816;9.420;2023-03-31T18:33:58;97434.31;;;8.69;89.76
48792;BME280;34587;48.816;9.420;2023-03-31T18:36:24;97447.28;;;8.68;91.41
48792;BME280;34587;48.816;9.420;2023-03-31T18:38:50;97443.13;;;8.64;91.94
48792;BME280;34587;48.816;9.420;2023-03-31T18:41:17;97446.59;;;8.63;92.41
48792;BME280;34587;48.816;9.420;2023-03-31T18:43:43;97455.41;;;8.56;93.22
48792;BME280;34587;48.816;9.420;2023-03-31T18:46:09;97447.94;;;8.48;95.00
48792;BME280;34587;48.816;9.420;2023-03-31T18:48:35;97454.00;;;8.45;95.83
48792;BME280;34587;48.816;9.420;2023-03-31T18:51:01;97446.69;;;8.60;94.58
48792;BME280;34587;48.816;9.420;2023-03-31T18:53:26;97436.66;;;8.50;94.74
48792;BME280;34587;48.816;9.420;2023-03-31T18:55:54;97441.63;;;8.57;93.12
48792;BME280;34587;48.816;9.420;2023-03-31T18:58:25;97439.84;;;8.59;91.78
48792;BME280;34587;48.816;9.420;2023-03-31T19:00:51;97442.63;;;8.53;93.10
48792;BME280;34587;48.816;9.420;2023-03-31T19:03:17;97437.75;;;8.70;88.85
48792;BME280;34587;48.816;9.420;2023-03-31T19:05:43;97436.59;;;8.80;86.43
48792;BME280;34587;48.816;9.420;2023-03-31T19:08:09;97427.34;;;8.99;84.18
48792;BME280;34587;48.816;9.420;2023-03-31T19:10:34;97437.84;;;8.93;84.91
48792;BME280;34587;48.816;9.420;2023-03-31T19:13:00;97436.31;;;9.14;81.30
48792;BME280;34587;48.816;9.420;2023-03-31T19:15:26;97441.03;;;9.01;84.10
48792;BME280;34587;48.816;9.420;2023-03-31T19:17:52;97437.91;;;8.92;83.96
48792;BME280;34587;48.816;9.420;2023-03-31T19:20:18;97441.50;;;9.13;82.18
48792;BME280;34587;48.816;9.420;2023-03-31T19:22:44;97442.88;;;9.23;80.97
48792;BME280;34587;48.816;9.420;2023-03-31T19:25:11;97437.63;;;9.26;79.61